Time;durP1;ratioP1;P1;durP2;ratioP2;P2;SDS_P1;SDS_P2;PMS_P1;PMS_P2;Temp;Humidity;BMP_temperature;BMP_pressure;BME280_temperature;BME280_humidity;BME280_pressure;Samples;Min_cycle;Max_cycle;Signal;HPM_P1;HPM_P2
2022/09/23 00:02:00;;;;;;;11.17;6.83;;;15.40;1.00;;;;;;5019664;28;20215;-92
2022/09/23 00:04:28;;;;;;;11.47;7.63;;;15.40;1.00;;;;;;4953424;28;20230;-92
2022/09/23 00:06:54;;;;;;;12.03;7.43;;;15.40;1.00;;;;;;5018954;28;20184;-93
2022/09/23 00:09:23;;;;;;;9.37;6.87;;;15.40;1.00;;;;;;5019367;28;20529;-91
2022/09/23 00:11:49;;;;;;;9.47;7.30;;;15.20;1.00;;;;;;5018720;28;20659;-91
2022/09/23 00:14:16;;;;;;;12.60;7.23;;;15.10;1.00;;;;;;5019872;28;20192;-92
2022/09/23 00:16:42;;;;;;;11.60;7.20;;;15.10;1.00;;;;;;5019453;28;20172;-91
2022/09/23 00:19:11;;;;;;;11.07;7.30;;;15.00;1.00;;;;;;5035157;28;20188;-91
2022/09/23 00:21:37;;;;;;;9.43;7.37;;;15.00;1.00;;;;;;5021933;28;20643;-91
2022/09/23 00:24:03;;;;;;;9.07;6.97;;;14.90;1.00;;;;;;5022448;28;20215;-91
2022/09/23 00:26:32;;;;;;;12.17;7.23;;;15.00;1.00;;;;;;5023151;28;20198;-91
2022/09/23 00:28:58;;;;;;;10.43;7.40;;;14.90;1.00;;;;;;5022393;28;20591;-93
2022/09/23 00:31:26;;;;;;;10.67;6.97;;;14.90;1.00;;;;;;4956027;28;20221;-92
2022/09/23 00:34:01;;;;;;;11.83;7.47;;;15.00;1.00;;;;;;5022929;28;20176;-91
2022/09/23 00:36:28;;;;;;;10.00;7.00;;;15.10;1.00;;;;;;4956103;28;20171;-92
2022/09/23 00:38:55;;;;;;;11.90;7.43;;;14.90;1.00;;;;;;5022917;28;20253;-91
2022/09/23 00:41:22;;;;;;;11.60;7.40;;;14.90;1.00;;;;;;5025131;28;20180;-93
2022/09/23 00:43:59;;;;;;;12.63;7.63;;;15.00;1.00;;;;;;5041243;28;20200;-91
2022/09/23 00:46:35;;;;;;;11.30;7.47;;;15.10;1.00;;;;;;5033547;28;20180;-90
2022/09/23 00:49:12;;;;;;;12.97;7.60;;;14.90;1.00;;;;;;5034935;28;20251;-90
2022/09/23 00:51:43;;;;;;;13.27;8.13;;;14.90;1.00;;;;;;5040659;28;20426;-90
2022/09/23 00:54:12;;;;;;;10.73;8.07;;;14.90;1.00;;;;;;5042995;28;20172;-90
2022/09/23 00:56:54;;;;;;;12.83;8.77;;;14.40;1.00;;;;;;5042475;28;20195;-90
2022/09/23 00:59:27;;;;;;;12.10;8.50;;;14.40;1.00;;;;;;5043223;28;20195;-91
2022/09/23 01:02:11;;;;;;;12.70;8.97;;;14.40;1.00;;;;;;4981237;28;20173;-91
2022/09/23 01:04:38;;;;;;;10.77;8.60;;;14.60;1.00;;;;;;5039000;28;20768;-90
2022/09/23 01:07:06;;;;;;;12.83;9.43;;;14.60;1.00;;;;;;5035096;28;20206;-90
2022/09/23 01:09:34;;;;;;;12.03;9.17;;;14.50;1.00;;;;;;5030670;28;20184;-94
2022/09/23 01:12:33;;;;;;;12.17;9.00;;;14.50;1.00;;;;;;5038536;28;20181;-93
2022/09/23 01:15:32;;;;;;;12.27;9.73;;;14.50;1.00;;;;;;5041673;28;20183;-90
2022/09/23 01:18:15;;;;;;;14.07;9.27;;;14.50;1.00;;;;;;5024805;28;20260;-93
2022/09/23 01:21:18;;;;;;;13.73;8.07;;;14.20;1.00;;;;;;5024251;28;20170;-91
2022/09/23 01:24:19;;;;;;;11.23;8.13;;;14.10;1.00;;;;;;5024932;28;20245;-92
2022/09/23 01:27:05;;;;;;;12.70;8.77;;;14.00;1.00;;;;;;5024315;28;20233;-92
2022/09/23 01:30:01;;;;;;;16.77;8.17;;;14.00;1.00;;;;;;5032959;28;20171;-92
2022/09/23 01:32:57;;;;;;;10.43;8.40;;;14.10;1.00;;;;;;5045195;28;20176;-92
2022/09/23 01:35:55;;;;;;;11.07;8.03;;;14.10;1.00;;;;;;4968195;28;20202;-92
2022/09/23 01:39:12;;;;;;;13.57;8.47;;;14.20;1.00;;;;;;5002999;28;20206;-93
2022/09/23 01:41:52;;;;;;;10.37;7.73;;;14.00;1.00;;;;;;5022763;28;20245;-92
2022/09/23 01:44:50;;;;;;;10.70;8.07;;;14.10;1.00;;;;;;5022366;28;20208;-92
2022/09/23 01:47:57;;;;;;;9.53;7.53;;;14.10;1.00;;;;;;5022743;28;20230;-92
2022/09/23 01:50:56;;;;;;;11.53;7.23;;;14.20;1.00;;;;;;4979759;28;20182;-92
2022/09/23 01:54:09;;;;;;;12.13;7.67;;;14.00;1.00;;;;;;4988683;28;20187;-92
2022/09/23 01:56:45;;;;;;;9.70;6.57;;;14.10;1.00;;;;;;5022586;28;20195;-90
2022/09/23 01:59:42;;;;;;;8.70;6.93;;;14.00;1.00;;;;;;5030699;28;20638;-90
2022/09/23 02:09:27;;;;;;;;;;;;;;;;;;;;;
2022/09/23 02:19:07;;;;;;;8.20;7.00;;;13.80;1.00;;;;;;4956275;29;20222;-90
2022/09/23 02:21:54;;;;;;;8.50;6.87;;;13.80;1.00;;;;;;5022598;28;20172;-90
2022/09/23 02:25:00;;;;;;;;;;;;;;;;;;;;;
2022/09/23 02:28:08;;;;;;;9.60;6.67;;;13.90;1.00;;;;;;4956098;28;20189;-90
2022/09/23 02:30:53;;;;;;;8.73;6.50;;;13.80;1.00;;;;;;5021873;28;20190;-91
2022/09/23 02:34:36;;;;;;;10.37;7.20;;;13.90;1.00;;;;;;5028835;28;20184;-89
2022/09/23 02:38:05;;;;;;;10.83;7.20;;;14.00;1.00;;;;;;4919036;29;20178;-90
2022/09/23 02:45:27;;;;;;;8.93;6.23;;;13.90;1.00;;;;;;4878749;29;20221;-91
2022/09/23 02:48:26;;;;;;;9.50;6.80;;;14.00;1.00;;;;;;4894189;28;20189;-92
2022/09/23 02:51:17;;;;;;;8.40;6.33;;;13.80;1.00;;;;;;4983329;28;20274;-91
2022/09/23 02:54:11;;;;;;;8.63;6.60;;;13.70;1.00;;;;;;4988282;28;20182;-90
2022/09/23 03:00:20;;;;;;;9.53;6.77;;;13.50;1.00;;;;;;4989160;28;20165;-91
2022/09/23 03:13:16;;;;;;;8.63;6.63;;;13.90;1.00;;;;;;4958961;29;20303;-91
2022/09/23 03:26:57;;;;;;;8.33;6.20;;;13.90;1.00;;;;;;4976350;28;20195;-92
2022/09/23 03:31:02;;;;;;;7.13;6.13;;;13.90;1.00;;;;;;4958673;28;20179;-90
2022/09/23 03:36:50;;;;;;;9.50;6.03;;;13.80;1.00;;;;;;4956419;28;20202;-91
2022/09/23 03:39:54;;;;;;;7.93;5.77;;;13.80;1.00;;;;;;5021350;28;20199;-91
2022/09/23 03:42:30;;;;;;;7.40;5.93;;;13.80;1.00;;;;;;5031902;28;20262;-91
2022/09/23 03:55:59;;;;;;;8.80;5.93;;;13.80;1.00;;;;;;4871080;29;20196;-90
2022/09/23 04:02:10;;;;;;;9.83;6.63;;;13.90;1.00;;;;;;4925628;29;20185;-91
2022/09/23 04:05:41;;;;;;;11.53;6.47;;;13.60;1.00;;;;;;4948455;28;20299;-90
2022/09/23 04:11:29;;;;;;;10.20;6.40;;;13.40;1.00;;;;;;4998548;28;20611;-92
2022/09/23 04:13:58;;;;;;;9.93;6.43;;;13.30;1.00;;;;;;5014681;28;20205;-91
2022/09/23 04:16:25;;;;;;;9.30;6.53;;;13.30;1.00;;;;;;5023388;28;20182;-92
2022/09/23 04:18:57;;;;;;;9.10;6.33;;;13.50;1.00;;;;;;5023920;28;20184;-91
2022/09/23 04:21:30;;;;;;;9.83;7.10;;;13.50;1.00;;;;;;4956782;28;20673;-92
2022/09/23 04:24:07;;;;;;;10.87;7.83;;;13.50;1.00;;;;;;5023857;28;20198;-91
2022/09/23 04:33:34;;;;;;;11.50;7.17;;;13.30;1.00;;;;;;4962264;29;20203;-88
2022/09/23 04:36:24;;;;;;;13.10;7.77;;;13.40;1.00;;;;;;5027189;28;20212;-92
2022/09/23 04:38:50;;;;;;;13.63;7.57;;;13.50;1.00;;;;;;5023559;28;20273;-94
2022/09/23 04:44:47;;;;;;;16.73;8.53;;;13.50;1.00;;;;;;4966432;29;20241;-91
2022/09/23 04:47:18;;;;;;;17.80;9.00;;;13.50;1.00;;;;;;4959750;28;20674;-92
2022/09/23 04:49:53;;;;;;;18.13;9.57;;;13.40;1.00;;;;;;5024829;28;20179;-92
2022/09/23 04:55:51;;;;;;;16.30;9.50;;;13.30;1.00;;;;;;4974147;28;20268;-90
2022/09/23 04:58:35;;;;;;;18.27;10.57;;;13.30;1.00;;;;;;5028409;28;20179;-89
2022/09/23 05:01:13;;;;;;;18.87;10.77;;;13.40;1.00;;;;;;4958172;29;20170;-92
2022/09/23 05:03:45;;;;;;;23.40;12.07;;;13.40;1.00;;;;;;5025153;28;20183;-93
2022/09/23 05:09:33;;;;;;;19.37;11.80;;;13.50;1.00;;;;;;4958829;29;20680;-92
2022/09/23 05:12:01;;;;;;;22.07;11.57;;;13.40;1.00;;;;;;5025001;28;20273;-90
2022/09/23 05:15:08;;;;;;;27.07;11.57;;;13.50;1.00;;;;;;5027223;28;20198;-90
2022/09/23 05:17:45;;;;;;;20.97;11.83;;;13.70;1.00;;;;;;5030783;28;20283;-90
2022/09/23 05:20:18;;;;;;;22.13;11.43;;;13.80;1.00;;;;;;5025362;28;20195;-93
2022/09/23 05:23:13;;;;;;;22.63;12.27;;;13.70;1.00;;;;;;5012163;28;20180;-91
2022/09/23 05:25:45;;;;;;;25.90;12.13;;;13.70;1.00;;;;;;5020216;28;20665;-90
2022/09/23 05:28:18;;;;;;;21.27;12.30;;;13.70;1.00;;;;;;5025510;28;20249;-91
2022/09/23 05:30:52;;;;;;;22.17;11.77;;;13.60;1.00;;;;;;5027278;28;20201;-90
2022/09/23 05:33:19;;;;;;;20.77;12.20;;;13.70;1.00;;;;;;5033810;28;20170;-91
2022/09/23 05:35:58;;;;;;;22.40;11.40;;;13.80;1.00;;;;;;5052656;28;20276;-91
2022/09/23 05:38:41;;;;;;;23.47;12.57;;;13.70;1.00;;;;;;5054048;28;20166;-90
2022/09/23 05:41:49;;;;;;;28.50;12.77;;;13.70;1.00;;;;;;5070027;28;20191;-91
2022/09/23 05:44:17;;;;;;;21.43;11.80;;;13.70;1.00;;;;;;5053844;28;20187;-89
2022/09/23 05:46:59;;;;;;;31.00;12.67;;;13.70;1.00;;;;;;5060643;28;20193;-88
2022/09/23 05:49:27;;;;;;;23.87;12.60;;;13.70;1.00;;;;;;5043590;28;20200;-89
2022/09/23 05:52:03;;;;;;;25.77;12.33;;;13.70;1.00;;;;;;5032551;28;20192;-87
2022/09/23 05:55:04;;;;;;;25.40;12.77;;;13.70;1.00;;;;;;5039846;28;20167;-88
2022/09/23 05:58:23;;;;;;;26.73;12.80;;;13.90;1.00;;;;;;5038278;28;20164;-89
2022/09/23 06:01:38;;;;;;;22.67;11.67;;;13.80;1.00;;;;;;4986593;28;20226;-89
2022/09/23 06:04:13;;;;;;;22.60;11.80;;;13.80;1.00;;;;;;4969567;28;20196;-90
2022/09/23 06:06:41;;;;;;;25.33;11.60;;;13.80;1.00;;;;;;5047740;28;20608;-89
2022/09/23 06:09:13;;;;;;;26.07;12.63;;;13.80;1.00;;;;;;5045537;28;20541;-84
2022/09/23 06:11:40;;;;;;;27.07;11.83;;;13.70;1.00;;;;;;5047409;28;20201;-86
2022/09/23 06:14:47;;;;;;;21.07;11.50;;;13.60;1.00;;;;;;5059614;28;20172;-89
2022/09/23 06:17:14;;;;;;;25.03;12.03;;;13.50;1.00;;;;;;5065141;28;20167;-89
2022/09/23 06:19:49;;;;;;;28.83;12.10;;;13.60;1.00;;;;;;5050384;28;20735;-92
2022/09/23 06:22:17;;;;;;;22.37;11.57;;;13.80;1.00;;;;;;5038087;28;20174;-92
2022/09/23 06:25:21;;;;;;;23.73;11.27;;;13.80;1.00;;;;;;5044897;28;20232;-88
2022/09/23 06:27:56;;;;;;;24.87;12.13;;;13.80;1.00;;;;;;4975025;28;20179;-92
2022/09/23 06:30:43;;;;;;;20.43;11.07;;;13.70;1.00;;;;;;5040685;28;20153;-90
2022/09/23 06:33:13;;;;;;;21.80;10.50;;;13.70;1.00;;;;;;5044728;28;20178;-91
2022/09/23 06:35:42;;;;;;;17.63;9.80;;;13.80;1.00;;;;;;5045133;28;20206;-93
2022/09/23 06:38:13;;;;;;;23.63;11.33;;;13.70;1.00;;;;;;5044334;28;20164;-90
2022/09/23 06:41:02;;;;;;;21.10;10.40;;;13.60;1.00;;;;;;4979345;28;20168;-88
2022/09/23 06:43:31;;;;;;;23.33;11.47;;;13.90;1.00;;;;;;5043013;28;20271;-93
2022/09/23 06:46:02;;;;;;;23.50;11.33;;;13.80;1.00;;;;;;4972679;28;20230;-95
2022/09/23 06:48:34;;;;;;;21.17;11.63;;;13.90;1.00;;;;;;5041822;28;20210;-89
2022/09/23 06:51:17;;;;;;;26.63;11.93;;;14.30;1.00;;;;;;5042774;28;20164;-92
2022/09/23 06:54:09;;;;;;;22.37;11.63;;;14.20;1.00;;;;;;5036834;28;20167;-89
2022/09/23 06:56:40;;;;;;;20.90;11.67;;;14.40;1.00;;;;;;5044089;28;20217;-89
2022/09/23 06:59:31;;;;;;;25.67;11.67;;;14.40;1.00;;;;;;5044559;28;20268;-91
2022/09/23 07:09:13;;;;;;;22.03;11.03;;;14.40;1.00;;;;;;4976462;28;20187;-92
2022/09/23 07:12:17;;;;;;;21.50;11.43;;;14.30;1.00;;;;;;5038570;28;20333;-92
2022/09/23 07:18:05;;;;;;;20.03;11.23;;;14.30;1.00;;;;;;4975551;28;20170;-94
2022/09/23 07:24:06;;;;;;;23.00;11.90;;;14.40;1.00;;;;;;4977957;28;20175;-93
2022/09/23 07:26:57;;;;;;;21.17;10.43;;;14.60;1.00;;;;;;5040211;28;20188;-94
2022/09/23 07:30:07;;;;;;;24.77;14.83;;;14.70;1.00;;;;;;5043269;28;20160;-89
2022/09/23 07:33:38;;;;;;;19.67;11.10;;;14.90;1.00;;;;;;4978556;28;20192;-96
2022/09/23 07:36:19;;;;;;;21.60;11.13;;;15.00;1.00;;;;;;5041257;28;20196;-95
2022/09/23 07:45:54;;;;;;;18.50;10.73;;;15.30;1.00;;;;;;4956236;29;20234;-89
2022/09/23 07:48:58;;;;;;;;;;;;;;;;;;;;;
2022/09/23 07:52:08;;;;;;;;;;;;;;;;;;;;;
2022/09/23 07:55:28;;;;;;;18.20;10.20;;;15.40;1.00;;;;;;4955684;28;20252;-90
2022/09/23 07:57:58;;;;;;;19.70;9.97;;;15.50;1.00;;;;;;5039100;28;20264;-89
2022/09/23 08:00:27;;;;;;;18.60;10.37;;;15.80;1.00;;;;;;5040427;28;20184;-85
2022/09/23 08:03:17;;;;;;;19.93;9.33;;;15.60;1.00;;;;;;5031285;28;20169;-87
2022/09/23 08:05:52;;;;;;;18.47;10.03;;;15.70;1.00;;;;;;4961721;28;20212;-91
2022/09/23 08:08:24;;;;;;;15.83;9.40;;;15.40;1.00;;;;;;5032331;28;20661;-90
2022/09/23 08:11:01;;;;;;;24.10;9.73;;;15.30;1.00;;;;;;5043721;28;20191;-91
2022/09/23 08:13:29;;;;;;;16.93;9.40;;;15.40;1.00;;;;;;5042641;28;20183;-88
2022/09/23 08:15:59;;;;;;;21.87;10.27;;;15.60;1.00;;;;;;5042094;28;20226;-90
2022/09/23 08:18:25;;;;;;;21.60;10.50;;;15.60;1.00;;;;;;5037238;28;20196;-86
2022/09/23 08:24:17;;;;;;;21.17;10.13;;;15.80;1.00;;;;;;4966214;29;20215;-93
2022/09/23 08:26:45;;;;;;;18.50;10.40;;;15.70;1.00;;;;;;5028426;28;20213;-90
2022/09/23 08:29:18;;;;;;;20.67;9.43;;;15.70;1.00;;;;;;5025174;28;20180;-87
2022/09/23 08:31:48;;;;;;;18.77;8.90;;;15.80;1.00;;;;;;5010843;28;20177;-86
2022/09/23 08:34:16;;;;;;;15.93;8.50;;;15.90;1.00;;;;;;4957613;28;20197;-88
2022/09/23 08:36:47;;;;;;;19.37;9.00;;;16.00;1.00;;;;;;5024709;28;20183;-88
2022/09/23 08:39:19;;;;;;;26.90;9.60;;;15.90;1.00;;;;;;5023670;28;20272;-85
2022/09/23 08:42:19;;;;;;;19.53;10.43;;;16.10;1.00;;;;;;5024442;28;20297;-86
2022/09/23 08:44:48;;;;;;;23.23;11.00;;;16.20;1.00;;;;;;5002443;28;20262;-86
2022/09/23 08:47:19;;;;;;;21.53;8.60;;;16.30;1.00;;;;;;5032852;28;20191;-88
2022/09/23 08:50:11;;;;;;;24.17;9.40;;;16.40;1.00;;;;;;5040280;28;20181;-87
2022/09/23 08:52:43;;;;;;;18.57;8.13;;;16.50;1.00;;;;;;5034332;28;20176;-87
2022/09/23 08:55:23;;;;;;;17.60;7.60;;;16.50;1.00;;;;;;5026317;28;20271;-88
2022/09/23 08:58:20;;;;;;;16.70;7.93;;;16.50;1.00;;;;;;5027915;28;20165;-88
2022/09/23 09:00:58;;;;;;;15.30;7.77;;;16.60;1.00;;;;;;5022068;28;20187;-90
2022/09/23 09:03:30;;;;;;;14.83;7.63;;;16.60;1.00;;;;;;5031363;28;20189;-92
2022/09/23 09:06:00;;;;;;;12.43;6.90;;;16.80;1.00;;;;;;5044322;28;20203;-87
2022/09/23 09:08:37;;;;;;;17.13;7.33;;;16.90;1.00;;;;;;5039788;28;20176;-91
2022/09/23 09:11:05;;;;;;;14.97;6.93;;;17.00;1.00;;;;;;5032183;28;20187;-90
2022/09/23 09:13:47;;;;;;;21.33;7.70;;;17.00;1.00;;;;;;5027894;28;20176;-90
2022/09/23 09:16:45;;;;;;;14.73;6.40;;;17.10;1.00;;;;;;5025120;28;20176;-92
2022/09/23 09:19:25;;;;;;;13.53;6.20;;;17.20;1.00;;;;;;5027824;28;20198;-90
2022/09/23 09:21:54;;;;;;;16.00;7.03;;;17.30;1.00;;;;;;5026039;28;20192;-91
2022/09/23 09:24:36;;;;;;;13.27;7.97;;;17.30;1.00;;;;;;5024445;28;20241;-90
2022/09/23 09:27:11;;;;;;;13.03;7.47;;;17.40;99.90;;;;;;5024071;28;20260;-90
2022/09/23 09:29:41;;;;;;;11.60;7.30;;;17.40;1.00;;;;;;5024634;28;20527;-88
2022/09/23 09:32:53;;;;;;;13.63;7.13;;;17.40;1.00;;;;;;5009601;28;20191;-89
2022/09/23 09:35:33;;;;;;;17.20;7.17;;;17.40;1.00;;;;;;5002548;28;20345;-91
2022/09/23 09:38:00;;;;;;;10.87;6.80;;;17.40;1.00;;;;;;5025149;28;20624;-91
2022/09/23 09:40:33;;;;;;;17.97;7.67;;;17.40;1.00;;;;;;5038035;28;20207;-92
2022/09/23 09:43:04;;;;;;;16.13;9.37;;;17.40;1.00;;;;;;5026645;28;20231;-90
2022/09/23 09:46:01;;;;;;;11.10;6.93;;;17.60;1.00;;;;;;5038900;28;20264;-91
2022/09/23 09:48:38;;;;;;;11.63;6.97;;;17.60;1.00;;;;;;5033110;28;20160;-90
2022/09/23 09:51:27;;;;;;;15.17;7.13;;;17.70;1.00;;;;;;5031280;28;20190;-90
2022/09/23 09:54:26;;;;;;;10.23;7.17;;;17.40;1.00;;;;;;5029431;28;20630;-91
2022/09/23 09:56:54;;;;;;;15.60;7.87;;;17.50;1.00;;;;;;5030843;28;20246;-91
2022/09/23 09:59:27;;;;;;;12.90;7.80;;;17.50;1.00;;;;;;5033762;28;20180;-91
2022/09/23 10:02:17;;;;;;;15.97;6.57;;;17.60;1.00;;;;;;5031628;28;20170;-91
2022/09/23 10:04:53;;;;;;;13.73;6.87;;;17.70;1.00;;;;;;5032308;28;20220;-91
2022/09/23 10:07:25;;;;;;;13.30;7.00;;;17.90;1.00;;;;;;5032373;28;20233;-90
2022/09/23 10:09:54;;;;;;;14.10;6.93;;;18.10;1.00;;;;;;5012609;28;20260;-91
2022/09/23 10:12:23;;;;;;;14.20;7.57;;;18.30;1.00;;;;;;4969864;28;20180;-91
2022/09/23 10:14:57;;;;;;;11.50;6.70;;;18.50;1.00;;;;;;5032574;28;20258;-90
2022/09/23 10:17:32;;;;;;;11.87;6.50;;;18.50;1.00;;;;;;5027125;28;20163;-90
2022/09/23 10:20:14;;;;;;;15.03;6.40;;;18.70;1.00;;;;;;5041117;28;20309;-89
2022/09/23 10:22:43;;;;;;;13.23;6.40;;;19.10;1.00;;;;;;5020556;28;20181;-91
2022/09/23 10:25:26;;;;;;;14.10;7.33;;;19.10;99.90;;;;;;5041545;28;20225;-90
2022/09/23 10:28:58;;;;;;;13.73;6.83;;;19.20;99.90;;;;;;4975117;28;20277;-90
2022/09/23 10:31:33;;;;;;;13.87;6.17;;;19.30;99.90;;;;;;5026237;28;20198;-88
2022/09/23 10:34:19;;;;;;;10.10;6.13;;;19.30;99.90;;;;;;5027718;28;20663;-90
2022/09/23 10:37:13;;;;;;;12.50;6.77;;;19.40;99.90;;;;;;5012562;28;20563;-90
2022/09/23 10:49:01;;;;;;;12.17;5.23;;;19.20;99.90;;;;;;4972516;29;20204;-89
2022/09/23 10:52:06;;;;;;;11.40;6.13;;;19.20;1.00;;;;;;5031005;28;20191;-92
2022/09/23 10:55:21;;;;;;;8.27;5.40;;;19.20;1.00;;;;;;5037992;28;20173;-90
2022/09/23 10:58:26;;;;;;;9.13;5.03;;;19.30;99.90;;;;;;5035056;28;20186;-90
2022/09/23 11:01:39;;;;;;;10.10;5.13;;;19.40;99.90;;;;;;4963959;28;20183;-88
2022/09/23 11:04:49;;;;;;;11.43;4.80;;;19.40;1.00;;;;;;5032153;28;20664;-90
2022/09/23 11:07:37;;;;;;;10.07;4.80;;;19.40;1.00;;;;;;5031862;28;20172;-90
2022/09/23 11:10:48;;;;;;;9.60;4.90;;;19.30;1.00;;;;;;5011389;28;20182;-90
2022/09/23 11:13:51;;;;;;;9.70;5.07;;;19.30;1.00;;;;;;5041188;28;20163;-90
2022/09/23 11:16:37;;;;;;;9.43;5.23;;;19.40;1.00;;;;;;5035818;28;20179;-89
2022/09/23 11:19:32;;;;;;;10.47;5.07;;;19.50;1.00;;;;;;5036712;28;20217;-90
2022/09/23 11:22:31;;;;;;;9.60;4.80;;;19.50;1.00;;;;;;4994447;28;20184;-89
2022/09/23 11:25:10;;;;;;;9.40;4.90;;;19.50;1.00;;;;;;4968376;28;20210;-91
2022/09/23 11:27:56;;;;;;;7.80;4.60;;;19.40;1.00;;;;;;5025073;28;20246;-90
2022/09/23 11:30:38;;;;;;;8.13;4.63;;;19.40;1.00;;;;;;5024917;28;20253;-91
2022/09/23 11:33:16;;;;;;;7.73;4.70;;;19.50;1.00;;;;;;5024315;28;20194;-88
2022/09/23 11:36:32;;;;;;;8.93;4.53;;;19.60;1.00;;;;;;5027363;28;20207;-89
2022/09/23 11:39:24;;;;;;;8.63;5.53;;;19.40;1.00;;;;;;5027717;28;20192;-87
2022/09/23 11:41:59;;;;;;;9.40;5.70;;;19.20;1.00;;;;;;5043456;28;20177;-89
2022/09/23 11:44:40;;;;;;;9.67;5.40;;;19.30;1.00;;;;;;5040061;28;20588;-89
2022/09/23 11:47:42;;;;;;;12.40;5.33;;;19.50;1.00;;;;;;5029514;28;20190;-88
2022/09/23 11:50:29;;;;;;;8.97;4.90;;;19.60;1.00;;;;;;5036361;28;20277;-92
2022/09/23 11:53:07;;;;;;;10.33;5.60;;;19.60;1.00;;;;;;5038772;28;20680;-90
2022/09/23 11:55:50;;;;;;;6.90;4.47;;;19.60;1.00;;;;;;5035157;28;20199;-90
2022/09/23 11:58:22;;;;;;;7.57;4.67;;;19.60;1.00;;;;;;5029017;28;20208;-89
2022/09/23 12:01:06;;;;;;;5.83;4.47;;;19.60;1.00;;;;;;5026345;28;20213;-93
2022/09/23 12:03:58;;;;;;;8.13;3.97;;;19.40;1.00;;;;;;4964653;29;20224;-88
2022/09/23 12:06:45;;;;;;;8.10;4.40;;;19.50;1.00;;;;;;4963941;28;20178;-88
2022/09/23 12:09:41;;;;;;;6.57;3.93;;;19.60;1.00;;;;;;5029082;28;20171;-91
2022/09/23 12:12:46;;;;;;;13.13;7.00;;;19.70;1.00;;;;;;5001097;28;20247;-89
2022/09/23 12:15:46;;;;;;;7.93;4.70;;;19.80;1.00;;;;;;4960863;28;20184;-87
2022/09/23 12:18:27;;;;;;;7.00;4.17;;;20.00;1.00;;;;;;5027039;28;20175;-88
2022/09/23 12:21:12;;;;;;;8.90;4.63;;;20.20;1.00;;;;;;5027274;28;20216;-87
2022/09/23 12:24:02;;;;;;;6.63;4.10;;;20.20;1.00;;;;;;5026423;28;20189;-88
2022/09/23 12:26:31;;;;;;;9.80;5.07;;;20.00;1.00;;;;;;5027856;28;20199;-87
2022/09/23 12:29:04;;;;;;;7.43;4.33;;;19.80;1.00;;;;;;5011931;28;20184;-89
2022/09/23 12:31:37;;;;;;;8.50;4.57;;;19.90;1.00;;;;;;5028424;28;20187;-90
2022/09/23 12:34:37;;;;;;;8.30;3.77;;;20.00;1.00;;;;;;5011634;28;20366;-87
2022/09/23 12:37:04;;;;;;;7.20;4.10;;;20.00;1.00;;;;;;5025689;28;20195;-88
2022/09/23 12:39:33;;;;;;;11.93;7.10;;;19.90;1.00;;;;;;5025881;28;20521;-88
2022/09/23 12:42:09;;;;;;;7.00;4.00;;;20.10;1.00;;;;;;5026047;28;20189;-88
2022/09/23 12:44:40;;;;;;;8.87;4.60;;;20.10;1.00;;;;;;5025510;28;20222;-88
2022/09/23 12:47:35;;;;;;;7.43;4.90;;;20.00;1.00;;;;;;5027082;28;20179;-87
2022/09/23 12:50:01;;;;;;;5.73;4.13;;;19.80;1.00;;;;;;5040187;28;20240;-88
2022/09/23 12:52:34;;;;;;;7.07;3.73;;;19.60;1.00;;;;;;5042426;28;20175;-89
2022/09/23 12:55:21;;;;;;;6.87;4.10;;;19.60;1.00;;;;;;5041924;28;20525;-88
2022/09/23 12:57:47;;;;;;;10.33;4.77;;;19.80;1.00;;;;;;5028471;28;20252;-91
2022/09/23 13:00:24;;;;;;;7.37;4.83;;;19.90;1.00;;;;;;5041561;28;20172;-89
2022/09/23 13:08:45;;;;;;;9.53;5.07;;;20.30;1.00;;;;;;5066064;28;20574;-91
2022/09/23 13:11:31;;;;;;;9.43;4.70;;;20.30;1.00;;;;;;5062423;28;20544;-91
2022/09/23 13:14:04;;;;;;;7.37;4.87;;;20.30;1.00;;;;;;5042366;28;20170;-91
2022/09/23 13:16:48;;;;;;;7.63;4.63;;;20.30;1.00;;;;;;5063376;28;20527;-95
2022/09/23 13:19:30;;;;;;;10.93;5.03;;;20.50;1.00;;;;;;5050371;28;20277;-92
2022/09/23 13:22:09;;;;;;;10.30;4.77;;;20.30;1.00;;;;;;5054283;28;20624;-91
2022/09/23 13:24:52;;;;;;;7.53;5.20;;;20.30;1.00;;;;;;5073837;28;20230;-90
2022/09/23 13:27:31;;;;;;;8.60;5.27;;;20.20;1.00;;;;;;5057910;28;20202;-92
2022/09/23 13:30:20;;;;;;;10.83;6.23;;;20.10;1.00;;;;;;5058443;28;20612;-92
2022/09/23 13:33:20;;;;;;;8.97;5.67;;;20.10;1.00;;;;;;5045552;28;20179;-90
2022/09/23 13:36:01;;;;;;;9.60;6.00;;;20.20;1.00;;;;;;5044266;28;20196;-91
2022/09/23 13:38:30;;;;;;;8.57;5.83;;;20.40;1.00;;;;;;5027409;28;20173;-92
2022/09/23 13:41:08;;;;;;;9.67;6.27;;;20.30;1.00;;;;;;5043010;28;20168;-89
2022/09/23 13:43:42;;;;;;;9.93;5.93;;;20.20;1.00;;;;;;5042338;28;20194;-90
2022/09/23 13:46:23;;;;;;;9.40;5.80;;;20.20;1.00;;;;;;5042343;28;20268;-90
2022/09/23 13:48:53;;;;;;;9.87;5.87;;;20.10;1.00;;;;;;5051929;28;20173;-89
2022/09/23 13:51:32;;;;;;;9.77;6.10;;;20.00;1.00;;;;;;5057716;28;20274;-91
2022/09/23 13:54:01;;;;;;;10.57;6.00;;;20.00;1.00;;;;;;5057381;28;20191;-89
2022/09/23 13:56:50;;;;;;;11.43;6.20;;;20.00;1.00;;;;;;5062934;28;20171;-92
2022/09/23 13:59:43;;;;;;;8.80;6.23;;;20.10;1.00;;;;;;5036900;28;20165;-91
2022/09/23 14:02:37;;;;;;;7.10;6.13;;;20.10;1.00;;;;;;5039661;28;20184;-91
2022/09/23 14:05:20;;;;;;;7.60;6.00;;;20.20;1.00;;;;;;5032050;28;20230;-91
2022/09/23 14:07:55;;;;;;;10.43;5.80;;;20.10;1.00;;;;;;5038832;28;20244;-91
2022/09/23 14:10:23;;;;;;;8.03;6.17;;;20.10;1.00;;;;;;5048784;22;20186;-91
2022/09/23 14:13:00;;;;;;;7.17;6.10;;;20.10;1.00;;;;;;5040810;28;20207;-90
2022/09/23 14:15:39;;;;;;;9.30;5.70;;;20.00;1.00;;;;;;5038193;28;20191;-89
2022/09/23 14:18:13;;;;;;;9.27;5.60;;;20.00;1.00;;;;;;5042383;28;20198;-91
2022/09/23 14:20:53;;;;;;;7.43;5.27;;;19.90;1.00;;;;;;5021186;28;20285;-91
2022/09/23 14:23:30;;;;;;;8.90;6.13;;;19.70;1.00;;;;;;5009902;28;20196;-93
2022/09/23 14:27:07;;;;;;;;;;;;;;;;;;;;;
2022/09/23 14:29:35;;;;;;;8.03;5.27;;;19.80;1.00;;;;;;4958682;28;20277;-92
2022/09/23 14:32:27;;;;;;;9.10;5.13;;;19.80;1.00;;;;;;4946769;29;20163;-95
2022/09/23 14:34:59;;;;;;;11.77;5.60;;;19.70;1.00;;;;;;5018071;28;20209;-89
2022/09/23 14:41:16;;;;;;;8.30;5.63;;;19.70;1.00;;;;;;4932773;29;20172;-89
2022/09/23 14:44:20;;;;;;;7.83;5.30;;;19.60;1.00;;;;;;4939865;28;20749;-91
2022/09/23 14:46:57;;;;;;;9.87;5.60;;;19.70;1.00;;;;;;5029286;28;20192;-90
2022/09/23 14:49:34;;;;;;;9.43;5.17;;;19.60;1.00;;;;;;5030262;28;20200;-90
2022/09/23 14:52:06;;;;;;;10.63;5.43;;;19.50;1.00;;;;;;5031974;28;20193;-91
2022/09/23 14:54:38;;;;;;;7.47;5.07;;;19.40;1.00;;;;;;5009668;28;20173;-89
2022/09/23 14:57:22;;;;;;;7.60;5.83;;;19.30;1.00;;;;;;5025094;28;20182;-90
2022/09/23 15:00:14;;;;;;;8.13;5.10;;;19.50;1.00;;;;;;5025310;28;20170;-90
2022/09/23 15:03:01;;;;;;;7.47;5.73;;;19.50;1.00;;;;;;5028889;28;20181;-89
2022/09/23 15:05:50;;;;;;;10.00;5.37;;;19.40;1.00;;;;;;5032633;28;20205;-90
2022/09/23 15:08:26;;;;;;;8.13;4.80;;;19.30;1.00;;;;;;5031082;28;20170;-90
2022/09/23 15:10:53;;;;;;;7.93;5.67;;;19.40;1.00;;;;;;5031540;28;20645;-92
2022/09/23 15:13:27;;;;;;;8.57;5.27;;;19.40;1.00;;;;;;5029799;28;20193;-93
2022/09/23 15:16:16;;;;;;;8.43;5.40;;;19.60;1.00;;;;;;4973707;29;20180;-91
2022/09/23 15:18:44;;;;;;;8.50;5.37;;;19.60;1.00;;;;;;5017307;28;20186;-92
2022/09/23 15:21:21;;;;;;;7.70;5.27;;;19.60;1.00;;;;;;4957279;28;20247;-93
2022/09/23 15:23:53;;;;;;;8.60;4.83;;;19.70;1.00;;;;;;4994786;28;20201;-92
2022/09/23 15:26:46;;;;;;;7.87;4.60;;;19.60;1.00;;;;;;5011185;28;20212;-92
2022/09/23 15:29:14;;;;;;;6.87;4.87;;;19.70;1.00;;;;;;5011433;28;20234;-90
2022/09/23 15:31:40;;;;;;;12.43;5.20;;;19.50;1.00;;;;;;5016462;28;20279;-89
2022/09/23 15:34:22;;;;;;;8.17;5.20;;;19.40;1.00;;;;;;5038079;28;20192;-89
2022/09/23 15:36:49;;;;;;;8.83;4.50;;;19.50;1.00;;;;;;5033732;28;20181;-89
2022/09/23 15:39:17;;;;;;;8.20;5.07;;;19.60;1.00;;;;;;5017887;28;20197;-89
2022/09/23 15:41:50;;;;;;;9.33;4.70;;;19.50;1.00;;;;;;5037236;28;20712;-88
2022/09/23 15:44:28;;;;;;;9.27;5.93;;;19.60;1.00;;;;;;5012355;28;20567;-89
2022/09/23 15:47:00;;;;;;;9.53;4.83;;;19.50;1.00;;;;;;5025240;28;20174;-90
2022/09/23 15:49:38;;;;;;;8.23;5.10;;;19.40;1.00;;;;;;5022310;28;20174;-91
2022/09/23 15:52:17;;;;;;;8.73;4.83;;;19.40;1.00;;;;;;5019122;28;20178;-90
2022/09/23 15:55:13;;;;;;;9.33;5.20;;;19.30;1.00;;;;;;4943479;28;20183;-89
2022/09/23 15:57:38;;;;;;;8.83;5.17;;;19.10;1.00;;;;;;5027890;28;20176;-88
2022/09/23 16:00:05;;;;;;;10.40;4.83;;;19.10;1.00;;;;;;5031591;28;20238;-88
2022/09/23 16:02:31;;;;;;;10.40;5.13;;;19.20;1.00;;;;;;4955894;28;20176;-89
2022/09/23 16:05:01;;;;;;;8.77;4.83;;;19.10;1.00;;;;;;5021796;28;20219;-90
2022/09/23 16:07:41;;;;;;;8.67;4.77;;;18.90;1.00;;;;;;5035477;28;20168;-89
2022/09/23 16:10:36;;;;;;;10.47;5.13;;;19.00;1.00;;;;;;5027633;28;20247;-91
2022/09/23 16:13:10;;;;;;;8.87;5.10;;;19.10;1.00;;;;;;4971832;28;20779;-91
2022/09/23 16:15:38;;;;;;;10.00;6.47;;;19.10;1.00;;;;;;4970211;28;20265;-91